Time;durP1;ratioP1;P1;durP2;ratioP2;P2;SDS_P1;SDS_P2;PMS_P1;PMS_P2;Temp;Humidity;BMP_temperature;BMP_pressure;BME280_temperature;BME280_humidity;BME280_pressure;Samples;Min_cycle;Max_cycle;Signal;HPM_P1;HPM_P2
2022/03/29 00:00:08;;;;;;;22.40;11.60;;;;;;;9.06;69.78;99899.78;4939856;29;20028;-84
2022/03/29 00:02:33;;;;;;;26.60;12.02;;;;;;;9.10;69.40;99894.66;4906902;29;20316;-83
2022/03/29 00:05:04;;;;;;;20.07;12.20;;;;;;;9.09;69.93;99893.81;4924602;29;20649;-85
2022/03/29 00:07:30;;;;;;;26.40;14.75;;;;;;;9.06;70.24;99888.06;4908445;29;20281;-84
2022/03/29 00:09:55;;;;;;;28.85;14.38;;;;;;;8.99;70.08;99883.63;4922783;29;20035;-84
2022/03/29 00:12:20;;;;;;;25.33;12.98;;;;;;;9.28;69.01;99879.09;4925249;29;20074;-84
2022/03/29 00:14:46;;;;;;;27.17;14.27;;;;;;;9.28;68.90;99879.09;4923721;29;20090;-84
2022/03/29 00:17:11;;;;;;;28.90;14.98;;;;;;;9.21;69.48;99874.66;4908140;29;20027;-84
2022/03/29 00:19:36;;;;;;;23.75;13.18;;;;;;;9.04;69.31;99868.47;4923510;29;20032;-84
2022/03/29 00:22:02;;;;;;;30.97;13.63;;;;;;;8.85;69.91;99872.31;4927957;29;20059;-84
2022/03/29 00:24:27;;;;;;;22.35;13.60;;;;;;;8.82;70.13;99877.41;4928208;29;20281;-84
2022/03/29 00:26:52;;;;;;;26.98;12.95;;;;;;;8.84;70.25;99872.56;4927710;29;20031;-83
2022/03/29 00:29:18;;;;;;;25.40;12.73;;;;;;;8.79;70.37;99867.84;4929055;29;20084;-85
2022/03/29 00:31:43;;;;;;;23.33;12.90;;;;;;;8.67;70.69;99865.25;4926183;29;20553;-85
2022/03/29 00:34:08;;;;;;;28.00;16.48;;;;;;;8.67;71.23;99864.41;4928478;29;20675;-85
2022/03/29 00:36:33;;;;;;;27.42;14.13;;;;;;;9.06;69.54;99855.44;4926126;29;20035;-84
2022/03/29 00:38:59;;;;;;;29.40;15.37;;;;;;;9.16;69.72;99861.00;4928229;29;20058;-84
2022/03/29 00:41:24;;;;;;;22.35;13.35;;;;;;;9.09;69.34;99855.75;4927187;29;20293;-85
2022/03/29 00:43:50;;;;;;;32.58;15.90;;;;;;;9.17;69.11;99857.19;4928072;29;20508;-84
2022/03/29 00:46:15;;;;;;;33.90;16.13;;;;;;;8.98;69.98;99848.53;4927830;29;20129;-84
2022/03/29 00:48:40;;;;;;;26.05;13.23;;;;;;;8.71;70.96;99844.66;4926173;29;20031;-83
2022/03/29 00:51:06;;;;;;;28.45;12.48;;;;;;;8.80;70.79;99847.78;4927980;29;20035;-84
2022/03/29 00:53:31;;;;;;;26.67;14.55;;;;;;;8.74;70.70;99849.59;4926400;29;20561;-84
2022/03/29 00:55:59;;;;;;;24.83;13.60;;;;;;;8.70;70.86;99843.03;4928537;29;20139;-85
2022/03/29 00:58:25;;;;;;;27.48;14.90;;;;;;;8.75;70.88;99848.50;4927176;29;20024;-85
2022/03/29 01:00:52;;;;;;;27.95;13.55;;;;;;;8.66;71.21;99841.03;4927476;29;20078;-84
2022/03/29 01:03:18;;;;;;;24.58;13.43;;;;;;;8.61;71.38;99834.47;4940272;29;20772;-84
2022/03/29 01:05:43;;;;;;;26.30;14.18;;;;;;;8.72;71.10;99840.03;4945114;29;20039;-84
2022/03/29 01:08:09;;;;;;;26.63;12.30;;;;;;;8.90;70.47;99841.66;4947034;29;20384;-85
2022/03/29 01:10:34;;;;;;;27.40;13.73;;;;;;;8.67;71.11;99843.50;4939090;29;20024;-85
2022/03/29 01:17:38;;;;;;;20.67;12.05;;;;;;;8.42;72.42;99831.16;4921739;29;20065;-84
2022/03/29 01:18:50;;;;;;;34.15;14.68;;;;;;;8.33;72.68;99830.75;4925646;29;20059;-85
2022/03/29 01:21:20;;;;;;;26.67;14.65;;;;;;;8.34;73.00;99835.09;4927801;29;20062;-84
2022/03/29 01:23:47;;;;;;;35.67;13.50;;;;;;;8.43;72.42;99829.25;4926655;29;20032;-85
2022/03/29 01:26:15;;;;;;;29.65;15.98;;;;;;;8.68;71.95;99834.28;4928197;29;20115;-84
2022/03/29 01:28:41;;;;;;;25.38;14.77;;;;;;;8.90;71.26;99828.06;4927048;29;20038;-84
2022/03/29 01:31:08;;;;;;;26.70;17.67;;;;;;;8.90;70.68;99821.78;4926159;29;20043;-85
2022/03/29 01:33:33;;;;;;;27.35;16.08;;;;;;;8.69;71.41;99819.63;4944772;29;20027;-84
2022/03/29 01:36:00;;;;;;;28.38;14.20;;;;;;;8.78;71.22;99830.06;4944790;29;20475;-84
2022/03/29 01:38:25;;;;;;;27.88;17.85;;;;;;;8.96;70.88;99816.16;4946858;29;20031;-84
2022/03/29 01:40:50;;;;;;;31.90;14.23;;;;;;;8.98;70.42;99816.75;4937299;29;20066;-85
2022/03/29 01:43:15;;;;;;;25.67;15.95;;;;;;;9.11;70.50;99814.72;4927513;29;20074;-84
2022/03/29 01:45:41;;;;;;;24.38;11.85;;;;;;;8.97;70.54;99815.06;4925099;29;20038;-85
2022/03/29 01:48:06;;;;;;;23.88;13.98;;;;;;;9.16;69.77;99805.78;4938924;29;20027;-85
2022/03/29 01:50:32;;;;;;;26.90;13.18;;;;;;;9.28;69.33;99805.63;4940098;29;20028;-84
2022/03/29 01:52:58;;;;;;;25.80;15.52;;;;;;;9.12;69.51;99802.75;4926057;29;20027;-85
2022/03/29 01:55:24;;;;;;;31.65;14.60;;;;;;;9.09;70.31;99806.00;4927490;29;20027;-84
2022/03/29 01:57:50;;;;;;;24.80;13.43;;;;;;;9.07;70.52;99799.97;4925031;29;20164;-85
2022/03/29 02:00:31;;;;;;;38.88;16.67;;;;;;;8.98;70.32;99799.59;4926660;29;20031;-84
2022/03/29 02:02:58;;;;;;;26.70;15.40;;;;;;;8.97;70.66;99797.97;4924532;29;20024;-85
2022/03/29 02:05:42;;;;;;;29.92;15.32;;;;;;;9.02;70.42;99799.91;4926694;29;20123;-84
2022/03/29 02:08:07;;;;;;;22.17;13.32;;;;;;;9.02;69.97;99794.47;4926923;29;20530;-84
2022/03/29 02:10:33;;;;;;;27.80;15.55;;;;;;;9.06;70.29;99801.03;4924883;29;20036;-85
2022/03/29 02:12:59;;;;;;;26.20;15.93;;;;;;;9.05;70.47;99796.69;4926441;29;20550;-85
2022/03/29 02:15:25;;;;;;;29.10;14.70;;;;;;;8.94;70.84;99788.41;4925072;29;20035;-84
2022/03/29 02:17:50;;;;;;;28.42;13.70;;;;;;;8.95;70.88;99791.97;4927391;29;20629;-84
2022/03/29 02:20:17;;;;;;;29.50;15.27;;;;;;;8.96;70.71;99790.88;4925193;29;20106;-84
2022/03/29 02:22:43;;;;;;;28.92;15.27;;;;;;;9.13;70.17;99790.81;4909866;29;20023;-84
2022/03/29 02:25:12;;;;;;;29.27;15.40;;;;;;;9.04;70.50;99782.25;4926788;29;20280;-85
2022/03/29 02:27:39;;;;;;;34.28;16.67;;;;;;;9.13;70.08;99785.38;4925718;29;20027;-84
2022/03/29 02:30:05;;;;;;;26.45;14.02;;;;;;;8.94;70.43;99782.97;4926726;29;20678;-85
2022/03/29 02:32:31;;;;;;;24.67;12.38;;;;;;;9.03;70.61;99771.66;4924350;29;20087;-84
2022/03/29 02:34:57;;;;;;;27.13;14.80;;;;;;;9.11;70.45;99774.72;4926835;29;20348;-85
2022/03/29 02:37:23;;;;;;;30.98;16.70;;;;;;;8.99;70.62;99774.84;4924729;29;20499;-84
2022/03/29 02:39:48;;;;;;;28.35;15.70;;;;;;;8.91;70.80;99783.47;4926919;29;20119;-85
2022/03/29 02:42:13;;;;;;;27.27;13.10;;;;;;;8.87;70.86;99771.44;4925313;29;20032;-84
2022/03/29 02:44:39;;;;;;;29.37;15.33;;;;;;;8.93;70.52;99775.88;4924796;29;20292;-84
2022/03/29 02:47:04;;;;;;;30.52;15.68;;;;;;;9.01;70.98;99757.47;4924461;29;20644;-84
2022/03/29 02:49:29;;;;;;;29.63;15.15;;;;;;;9.05;70.59;99756.69;4924123;29;20028;-83
2022/03/29 02:51:55;;;;;;;28.20;15.73;;;;;;;9.13;70.39;99757.34;4925894;29;20288;-84
2022/03/29 02:54:20;;;;;;;28.17;16.53;;;;;;;9.06;70.31;99765.69;4923633;29;20024;-85
2022/03/29 02:56:46;;;;;;;31.05;17.02;;;;;;;9.02;70.31;99759.94;4926403;29;20742;-85
2022/03/29 02:59:12;;;;;;;34.40;17.30;;;;;;;9.04;70.31;99748.81;4924823;29;20165;-84
2022/03/29 03:01:38;;;;;;;35.50;17.15;;;;;;;8.91;70.94;99745.38;4925060;29;20564;-85
2022/03/29 03:04:03;;;;;;;27.75;17.40;;;;;;;8.99;70.49;99741.41;4925657;29;20031;-84
2022/03/29 03:06:29;;;;;;;37.78;18.95;;;;;;;9.05;70.36;99740.38;4924031;29;20044;-84
2022/03/29 03:08:54;;;;;;;33.60;19.95;;;;;;;8.86;70.92;99739.91;4925529;29;20700;-86
2022/03/29 03:11:20;;;;;;;29.65;17.08;;;;;;;8.99;70.72;99734.06;4922035;29;20027;-84
2022/03/29 03:16:29;;;;;;;30.60;17.63;;;;;;;8.71;72.08;99735.09;4922125;29;20521;-83
2022/03/29 03:18:55;;;;;;;31.50;16.73;;;;;;;8.97;71.34;99738.13;4925511;29;20031;-85
2022/03/29 03:21:21;;;;;;;41.15;21.67;;;;;;;9.01;70.74;99733.81;4907794;29;20038;-84
2022/03/29 03:23:46;;;;;;;32.03;19.38;;;;;;;9.00;71.06;99726.75;4924108;29;20031;-84
2022/03/29 03:26:11;;;;;;;29.80;17.17;;;;;;;8.83;71.50;99732.25;4908361;29;20315;-84
2022/03/29 03:28:36;;;;;;;33.63;17.90;;;;;;;8.95;71.63;99730.22;4906768;29;20027;-84
2022/03/29 03:31:02;;;;;;;31.27;18.80;;;;;;;8.79;71.95;99731.94;4924733;29;20282;-84
2022/03/29 03:33:27;;;;;;;34.42;19.15;;;;;;;8.90;72.05;99726.63;4923894;29;20258;-84
2022/03/29 03:35:52;;;;;;;38.08;22.65;;;;;;;8.89;71.49;99725.78;4926152;29;20035;-83
2022/03/29 03:38:18;;;;;;;38.35;21.13;;;;;;;8.86;72.13;99718.16;4908093;29;20674;-84
2022/03/29 03:40:43;;;;;;;32.80;19.67;;;;;;;8.90;71.76;99723.91;4924731;29;20415;-86
2022/03/29 03:43:09;;;;;;;34.67;18.95;;;;;;;8.74;72.27;99718.28;4908519;29;20032;-82
2022/03/29 03:45:34;;;;;;;37.00;17.13;;;;;;;8.87;72.01;99719.78;4923007;29;20122;-84
2022/03/29 03:48:00;;;;;;;35.63;18.77;;;;;;;8.94;71.73;99723.16;4924988;29;20089;-84
2022/03/29 03:50:25;;;;;;;33.60;19.10;;;;;;;8.85;71.83;99722.75;4922685;29;20036;-83
2022/03/29 03:53:03;;;;;;;36.35;20.38;;;;;;;8.89;71.66;99717.63;4925581;29;20028;-84
2022/03/29 03:55:29;;;;;;;34.97;20.15;;;;;;;8.85;71.81;99713.78;4924085;29;20253;-85
2022/03/29 03:57:54;;;;;;;33.08;18.30;;;;;;;8.81;71.80;99712.66;4907809;29;20097;-85
2022/03/29 04:00:21;;;;;;;39.93;21.10;;;;;;;8.83;71.64;99711.31;4925012;29;20057;-84
2022/03/29 04:02:49;;;;;;;38.80;19.88;;;;;;;8.72;72.35;99699.53;4932070;29;20285;-84
2022/03/29 04:05:14;;;;;;;35.28;19.65;;;;;;;8.68;72.68;99694.84;4944633;29;20042;-85
2022/03/29 04:07:41;;;;;;;37.03;20.30;;;;;;;8.69;72.31;99693.75;4942685;29;20035;-84
2022/03/29 04:10:07;;;;;;;31.15;17.73;;;;;;;8.72;72.50;99680.50;4942481;29;20610;-84
2022/03/29 04:12:33;;;;;;;35.45;18.30;;;;;;;8.74;71.93;99680.25;4924141;29;20028;-85
2022/03/29 04:14:59;;;;;;;40.85;23.50;;;;;;;8.67;72.50;99683.16;4924519;29;20062;-84
2022/03/29 04:17:24;;;;;;;38.00;21.40;;;;;;;8.68;72.55;99679.38;4924872;29;20087;-84
2022/03/29 04:19:49;;;;;;;33.25;19.73;;;;;;;8.50;73.06;99680.47;4923778;29;20044;-84
2022/03/29 04:22:18;;;;;;;38.30;20.48;;;;;;;8.51;73.32;99684.81;4925055;29;20058;-84
2022/03/29 04:24:44;;;;;;;32.60;19.98;;;;;;;8.67;72.29;99683.16;4922995;29;20035;-84
2022/03/29 04:27:09;;;;;;;33.95;20.70;;;;;;;8.49;72.50;99685.09;4925522;29;20042;-84
2022/03/29 04:29:34;;;;;;;42.60;21.55;;;;;;;8.57;73.14;99693.88;4923043;29;20051;-85
2022/03/29 04:31:59;;;;;;;37.77;23.60;;;;;;;8.60;72.37;99679.81;4925576;29;20059;-85
2022/03/29 04:34:25;;;;;;;41.50;20.50;;;;;;;8.60;72.96;99674.38;4942117;29;20970;-85
2022/03/29 04:36:50;;;;;;;37.60;19.98;;;;;;;8.56;72.79;99681.34;4941990;29;20031;-85
2022/03/29 04:39:16;;;;;;;36.03;19.75;;;;;;;8.45;73.04;99673.06;4943691;29;20035;-85
2022/03/29 04:41:41;;;;;;;32.90;19.95;;;;;;;8.50;72.75;99677.75;4928336;29;20035;-83
2022/03/29 04:44:06;;;;;;;37.08;20.95;;;;;;;8.31;73.97;99669.09;4924717;29;20115;-85
2022/03/29 04:46:32;;;;;;;39.05;23.25;;;;;;;8.41;73.76;99661.91;4920939;29;20040;-84
2022/03/29 04:48:57;;;;;;;37.03;20.47;;;;;;;8.52;73.43;99665.53;4925368;29;20234;-84
2022/03/29 04:51:22;;;;;;;37.00;19.30;;;;;;;8.57;72.88;99666.72;4923283;29;20301;-84
2022/03/29 04:53:48;;;;;;;39.72;22.60;;;;;;;8.49;72.99;99660.63;4924659;29;20024;-85
2022/03/29 04:56:13;;;;;;;35.63;20.75;;;;;;;8.36;73.87;99666.44;4923795;29;20039;-85
2022/03/29 04:58:39;;;;;;;35.88;23.13;;;;;;;8.27;74.00;99658.75;4921418;29;20039;-85
2022/03/29 05:01:05;;;;;;;38.10;23.73;;;;;;;8.23;74.28;99656.78;4924672;29;20039;-85
2022/03/29 05:03:32;;;;;;;44.13;22.38;;;;;;;8.21;74.19;99640.72;4923265;29;20035;-85
2022/03/29 05:05:57;;;;;;;41.95;23.17;;;;;;;8.27;74.09;99649.75;4924451;29;20175;-84
2022/03/29 05:08:23;;;;;;;37.35;23.50;;;;;;;8.01;74.80;99639.41;4924805;29;20122;-85
2022/03/29 05:10:48;;;;;;;36.70;22.70;;;;;;;7.97;74.95;99640.97;4925711;29;20034;-85
2022/03/29 05:13:15;;;;;;;40.40;23.40;;;;;;;7.99;75.18;99635.28;4927943;29;20269;-84
2022/03/29 05:15:40;;;;;;;42.53;22.17;;;;;;;7.98;74.87;99636.34;4925901;29;20136;-85
2022/03/29 05:18:06;;;;;;;53.53;26.60;;;;;;;7.92;75.10;99636.28;4927540;29;20360;-85
2022/03/29 05:20:31;;;;;;;43.83;25.50;;;;;;;7.88;75.60;99637.03;4926147;29;20074;-84
2022/03/29 05:25:59;;;;;;;44.90;25.05;;;;;;;8.04;74.95;99641.59;4925601;29;20134;-85
2022/03/29 05:28:24;;;;;;;40.97;22.93;;;;;;;8.00;74.51;99624.16;4926462;29;20114;-85
2022/03/29 05:30:49;;;;;;;49.13;23.77;;;;;;;8.01;74.80;99625.81;4926480;29;20274;-85
2022/03/29 05:33:15;;;;;;;46.50;28.83;;;;;;;8.07;74.57;99626.72;4925992;29;20273;-84
2022/03/29 05:35:41;;;;;;;49.95;29.35;;;;;;;7.95;74.67;99632.25;4928138;29;20337;-83
2022/03/29 05:38:07;;;;;;;50.85;25.15;;;;;;;7.85;75.22;99630.19;4926479;29;20110;-85
2022/03/29 05:40:32;;;;;;;45.77;25.17;;;;;;;7.85;75.58;99632.09;4927145;29;20175;-85
2022/03/29 05:42:57;;;;;;;41.78;23.83;;;;;;;7.89;75.64;99635.97;4926105;29;20274;-84
2022/03/29 05:45:23;;;;;;;43.15;26.38;;;;;;;7.81;75.88;99632.59;4941844;29;20028;-85
2022/03/29 05:50:33;;;;;;;48.13;29.20;;;;;;;7.66;76.63;99635.91;4924496;29;20038;-84
2022/03/29 05:53:00;;;;;;;48.70;29.40;;;;;;;7.79;76.26;99629.31;4927042;29;20035;-85
2022/03/29 05:55:26;;;;;;;54.20;31.85;;;;;;;7.76;75.72;99631.69;4925964;29;20020;-84
2022/03/29 05:57:52;;;;;;;44.58;25.15;;;;;;;7.83;76.05;99629.66;4927898;29;20024;-84
2022/03/29 06:00:21;;;;;;;50.83;26.27;;;;;;;7.61;76.72;99632.31;4925639;29;20424;-84
2022/03/29 06:02:46;;;;;;;44.75;27.35;;;;;;;7.59;76.78;99637.97;4926834;29;20020;-85
2022/03/29 06:05:11;;;;;;;50.08;30.02;;;;;;;7.61;76.62;99632.31;4927137;29;20042;-85
2022/03/29 06:07:37;;;;;;;47.83;27.38;;;;;;;7.73;76.79;99633.00;4925491;29;20454;-84
2022/03/29 06:10:04;;;;;;;40.47;24.50;;;;;;;7.81;76.49;99627.16;4926080;29;20073;-85
2022/03/29 06:12:30;;;;;;;56.30;30.23;;;;;;;7.68;76.94;99627.53;4926139;29;20031;-85
2022/03/29 06:14:55;;;;;;;52.92;29.88;;;;;;;7.76;76.15;99637.97;4926977;29;20079;-85
2022/03/29 06:17:21;;;;;;;48.50;30.25;;;;;;;7.87;76.11;99629.97;4929439;29;20566;-83
2022/03/29 06:19:46;;;;;;;51.78;31.63;;;;;;;7.89;75.98;99634.06;4929063;29;20055;-85
2022/03/29 06:22:12;;;;;;;45.50;27.08;;;;;;;7.97;75.61;99632.81;4932643;29;20110;-82
2022/03/29 06:24:38;;;;;;;37.85;24.23;;;;;;;7.99;75.41;99646.97;4929507;29;20028;-83
2022/03/29 06:27:04;;;;;;;56.35;30.02;;;;;;;8.05;75.52;99647.84;4927156;29;20582;-83
2022/03/29 06:29:29;;;;;;;50.10;30.63;;;;;;;7.91;75.82;99653.63;4923401;29;20225;-83
2022/03/29 06:31:55;;;;;;;48.40;28.20;;;;;;;7.91;76.04;99637.34;4927391;29;20178;-82
2022/03/29 06:34:21;;;;;;;64.18;34.28;;;;;;;7.93;76.54;99650.69;4924639;29;20553;-84
2022/03/29 06:36:46;;;;;;;51.35;28.75;;;;;;;7.94;75.88;99636.03;4927253;29;20054;-83
2022/03/29 06:39:13;;;;;;;63.67;32.60;;;;;;;8.09;75.89;99640.03;4925926;29;20024;-84
2022/03/29 06:41:39;;;;;;;50.35;29.33;;;;;;;8.17;75.65;99639.59;4926365;29;20095;-84
2022/03/29 06:47:26;;;;;;;62.60;33.15;;;;;;;8.23;75.64;99635.88;4921467;29;20070;-83
2022/03/29 06:49:52;;;;;;;61.00;26.70;;;;;;;8.37;74.69;99638.19;4927097;29;20447;-83
2022/03/29 06:52:18;;;;;;;57.90;32.88;;;;;;;8.12;75.82;99639.50;4925801;29;20318;-82
2022/03/29 06:54:43;;;;;;;57.88;35.10;;;;;;;8.11;75.90;99635.16;4924695;29;20020;-84
2022/03/29 06:57:09;;;;;;;53.78;32.00;;;;;;;8.02;76.32;99634.75;4927184;29;20831;-82
2022/03/29 06:59:34;;;;;;;56.10;29.40;;;;;;;8.17;75.81;99634.16;4913231;29;20099;-84
2022/03/29 07:02:00;;;;;;;62.00;33.38;;;;;;;8.37;75.84;99638.19;4928358;29;20038;-84
2022/03/29 07:04:25;;;;;;;49.57;28.03;;;;;;;8.46;74.76;99642.09;4927967;29;20036;-84
2022/03/29 07:06:50;;;;;;;53.80;30.67;;;;;;;8.33;75.70;99642.50;4927296;29;20641;-83
2022/03/29 07:12:00;;;;;;;52.35;30.95;;;;;;;8.57;74.24;99636.81;4928378;29;20581;-86
2022/03/29 07:14:25;;;;;;;61.25;34.55;;;;;;;8.57;74.64;99642.25;4925276;29;20032;-85
2022/03/29 07:16:50;;;;;;;57.70;30.77;;;;;;;8.71;74.15;99635.34;4923703;29;20027;-85
2022/03/29 07:19:16;;;;;;;52.10;29.08;;;;;;;8.75;74.66;99644.63;4926282;29;20553;-84
2022/03/29 07:21:43;;;;;;;50.83;29.17;;;;;;;8.75;74.22;99641.91;4923678;29;20020;-85
2022/03/29 07:24:10;;;;;;;53.25;28.98;;;;;;;8.51;74.98;99644.91;4925421;29;20261;-83
2022/03/29 07:26:37;;;;;;;54.25;27.58;;;;;;;8.71;74.31;99651.66;4922604;29;20499;-85
2022/03/29 07:29:04;;;;;;;61.03;31.77;;;;;;;8.47;74.81;99642.94;4925532;29;20058;-86
2022/03/29 07:31:30;;;;;;;59.05;30.73;;;;;;;8.51;75.18;99647.63;4917308;29;20051;-86
2022/03/29 07:33:55;;;;;;;50.75;29.20;;;;;;;8.70;74.31;99641.88;4923600;29;20031;-86
2022/03/29 07:36:20;;;;;;;52.37;29.90;;;;;;;8.79;74.28;99644.16;4925611;29;20494;-85
2022/03/29 07:38:45;;;;;;;55.87;31.47;;;;;;;8.61;75.01;99649.66;4923409;29;20340;-84
2022/03/29 07:41:11;;;;;;;56.40;28.90;;;;;;;8.45;75.81;99651.34;4915403;29;20309;-85
2022/03/29 07:43:36;;;;;;;63.15;34.88;;;;;;;8.53;75.18;99653.63;4905110;29;20259;-86
2022/03/29 07:46:02;;;;;;;67.63;36.47;;;;;;;8.43;75.69;99648.06;4906357;29;20520;-86
2022/03/29 07:48:27;;;;;;;56.00;30.30;;;;;;;8.72;74.67;99653.31;4923775;29;20262;-86
2022/03/29 07:50:54;;;;;;;50.42;29.55;;;;;;;8.69;74.86;99655.69;4917428;29;20433;-86
2022/03/29 07:53:21;;;;;;;61.10;33.58;;;;;;;8.58;75.22;99660.22;4906118;29;20028;-85
2022/03/29 07:55:46;;;;;;;63.85;33.22;;;;;;;8.53;75.15;99656.34;4904412;29;20103;-86
2022/03/29 07:58:12;;;;;;;57.78;31.25;;;;;;;8.65;75.06;99655.41;4906350;29;20551;-84
2022/03/29 08:00:38;;;;;;;59.97;33.22;;;;;;;8.83;74.84;99653.41;4906781;29;20053;-85
2022/03/29 08:03:09;;;;;;;70.63;35.50;;;;;;;8.95;74.44;99656.00;4924921;29;20059;-84
2022/03/29 08:05:35;;;;;;;57.88;32.80;;;;;;;8.73;74.70;99651.41;4924575;29;20036;-84
2022/03/29 08:08:01;;;;;;;63.28;35.10;;;;;;;8.85;74.42;99643.09;4924724;29;20541;-84
2022/03/29 08:10:29;;;;;;;54.05;28.90;;;;;;;8.56;74.66;99646.03;4909189;29;20066;-85
2022/03/29 08:12:56;;;;;;;64.05;33.90;;;;;;;8.48;75.72;99656.25;4904408;29;20036;-86
2022/03/29 08:15:22;;;;;;;60.95;32.17;;;;;;;8.53;74.65;99656.34;4904758;29;20037;-86
2022/03/29 08:17:48;;;;;;;63.45;34.35;;;;;;;8.60;75.46;99658.06;4904630;29;20032;-85
2022/03/29 08:20:14;;;;;;;58.83;29.85;;;;;;;8.68;74.02;99663.06;4905107;29;20830;-86
2022/03/29 08:22:44;;;;;;;63.70;33.35;;;;;;;8.20;75.54;99651.84;4903841;29;20028;-83
2022/03/29 08:25:11;;;;;;;58.10;32.88;;;;;;;7.96;76.78;99654.78;4904904;29;20040;-83
2022/03/29 08:27:37;;;;;;;55.65;32.60;;;;;;;8.14;76.58;99654.50;4906349;29;20062;-86
2022/03/29 08:30:02;;;;;;;66.43;32.05;;;;;;;8.37;76.07;99649.06;4910342;29;20067;-87
2022/03/29 08:32:28;;;;;;;53.88;28.38;;;;;;;8.48;75.60;99641.88;4924140;29;20031;-85
2022/03/29 08:34:53;;;;;;;62.70;31.97;;;;;;;8.47;75.00;99635.59;4923604;29;20355;-86
2022/03/29 08:37:18;;;;;;;61.13;31.08;;;;;;;8.66;74.14;99643.47;4923959;29;20265;-83
2022/03/29 08:39:44;;;;;;;62.22;33.65;;;;;;;8.52;74.53;99643.81;4923125;29;20074;-82
2022/03/29 08:42:12;;;;;;;58.30;33.95;;;;;;;8.90;74.37;99637.72;4925439;29;20039;-84
2022/03/29 08:44:41;;;;;;;62.53;32.97;;;;;;;9.02;74.20;99631.28;4926635;29;20028;-84
2022/03/29 08:47:08;;;;;;;66.25;35.50;;;;;;;9.10;73.43;99637.09;4933052;29;20364;-82
2022/03/29 08:49:35;;;;;;;52.88;29.60;;;;;;;8.86;73.73;99625.72;4946986;29;20035;-83
2022/03/29 08:52:01;;;;;;;50.95;32.67;;;;;;;8.40;75.04;99632.28;4935238;29;20399;-84
2022/03/29 08:54:27;;;;;;;55.28;30.75;;;;;;;8.75;74.85;99620.19;4928479;29;20392;-86
2022/03/29 08:56:53;;;;;;;59.63;34.03;;;;;;;8.99;74.19;99622.56;4926155;29;20483;-84
2022/03/29 08:59:20;;;;;;;67.25;35.58;;;;;;;9.18;73.63;99613.22;4927272;29;20102;-85
2022/03/29 09:01:46;;;;;;;58.13;30.25;;;;;;;9.17;73.50;99619.75;4925619;29;20036;-83
2022/03/29 09:04:16;;;;;;;59.78;30.20;;;;;;;9.21;73.48;99618.16;4926824;29;20035;-82
2022/03/29 09:06:57;;;;;;;57.60;29.02;;;;;;;9.27;72.77;99617.13;4922339;29;20060;-83
2022/03/29 09:09:44;;;;;;;54.13;28.45;;;;;;;9.51;72.52;99610.47;4924895;29;20036;-83
2022/03/29 09:12:17;;;;;;;54.30;31.00;;;;;;;9.57;72.07;99612.16;4910607;29;20419;-84
2022/03/29 09:14:59;;;;;;;55.38;31.70;;;;;;;9.40;73.17;99609.56;4925068;29;20507;-83
2022/03/29 09:17:33;;;;;;;55.50;29.55;;;;;;;9.22;72.83;99617.06;4930945;29;20035;-82
2022/03/29 09:19:59;;;;;;;64.50;33.10;;;;;;;9.55;71.95;99617.88;4930811;29;20062;-83
2022/03/29 09:22:45;;;;;;;54.05;28.30;;;;;;;9.36;72.71;99598.41;4923689;29;20092;-83
2022/03/29 09:25:14;;;;;;;57.28;31.52;;;;;;;9.52;72.38;99601.25;4927483;29;20431;-85
2022/03/29 09:27:57;;;;;;;49.90;27.67;;;;;;;9.61;71.82;99591.50;4926842;29;20500;-91
2022/03/29 09:30:28;;;;;;;47.28;28.92;;;;;;;9.36;72.17;99589.44;4925382;29;20062;-85
2022/03/29 09:32:57;;;;;;;54.47;30.80;;;;;;;9.54;71.54;99593.63;4927515;29;20247;-83
2022/03/29 09:35:24;;;;;;;54.90;27.50;;;;;;;9.72;71.39;99588.84;4924753;29;20406;-84
2022/03/29 09:37:49;;;;;;;52.78;28.88;;;;;;;9.74;71.13;99592.94;4926934;29;20434;-83
2022/03/29 09:40:15;;;;;;;52.53;27.58;;;;;;;9.76;71.55;99590.75;4925386;29;20349;-82
2022/03/29 09:42:41;;;;;;;55.15;30.52;;;;;;;9.70;71.25;99589.13;4925050;29;20385;-83
2022/03/29 09:45:08;;;;;;;54.17;28.58;;;;;;;9.56;71.79;99586.00;4926772;29;20042;-81
2022/03/29 09:47:34;;;;;;;55.95;28.38;;;;;;;9.62;71.46;99579.50;4925449;29;20046;-84
2022/03/29 09:50:08;;;;;;;48.95;29.15;;;;;;;9.66;71.55;99580.63;4927080;29;20032;-84
2022/03/29 09:52:44;;;;;;;;;;;;;;;9.71;71.43;99587.19;4924732;29;20098;-86
2022/03/29 09:55:21;;;;;;;45.42;26.38;;;;;;;9.73;71.45;99585.84;4941644;29;19923;-87
2022/03/29 09:57:52;;;;;;;59.10;29.80;;;;;;;9.71;71.75;99581.75;4925810;29;20486;-82
2022/03/29 10:00:38;;;;;;;55.05;28.38;;;;;;;9.45;72.08;99583.25;4925816;29;20032;-84
2022/03/29 10:03:07;;;;;;;57.83;33.60;;;;;;;9.65;71.51;99579.00;4926647;29;20044;-87
2022/03/29 10:05:34;;;;;;;54.55;27.83;;;;;;;9.93;70.94;99585.13;4925843;29;20394;-85
2022/03/29 10:10:55;;;;;;;49.20;28.90;;;;;;;10.01;70.86;99577.53;4926962;29;20050;-84
2022/03/29 10:13:24;;;;;;;54.55;26.95;;;;;;;9.96;70.16;99574.81;4925729;29;20035;-84
2022/03/29 10:15:54;;;;;;;59.53;28.98;;;;;;;9.98;70.80;99575.34;4926357;29;20027;-84
2022/03/29 10:18:21;;;;;;;52.45;29.10;;;;;;;10.18;70.19;99579.25;4924059;29;20151;-84
2022/03/29 10:20:47;;;;;;;59.22;31.50;;;;;;;10.12;70.22;99573.78;4926250;29;20111;-83
2022/03/29 10:23:18;;;;;;;51.22;28.38;;;;;;;10.09;69.75;99571.59;4925435;29;20131;-84
2022/03/29 10:25:44;;;;;;;46.83;26.65;;;;;;;9.87;70.37;99563.59;4926920;29;20046;-85
2022/03/29 10:28:10;;;;;;;56.75;31.95;;;;;;;9.81;71.20;99570.91;4925807;29;20119;-83
2022/03/29 10:30:41;;;;;;;61.80;33.03;;;;;;;10.04;70.27;99557.94;4924699;29;20036;-83
2022/03/29 10:33:19;;;;;;;50.35;27.20;;;;;;;9.90;70.35;99555.72;4940392;29;20495;-84
2022/03/29 10:36:14;;;;;;;54.05;28.17;;;;;;;9.84;70.27;99551.34;4943465;29;20223;-84
2022/03/29 10:38:48;;;;;;;48.70;27.73;;;;;;;9.77;70.86;99540.69;4945435;29;20055;-83
2022/03/29 10:41:26;;;;;;;49.67;26.77;;;;;;;9.92;70.25;99548.13;4934584;29;20541;-84
2022/03/29 10:44:04;;;;;;;49.08;29.90;;;;;;;9.83;71.52;99536.06;4925343;29;20849;-82
2022/03/29 10:46:47;;;;;;;61.35;28.70;;;;;;;10.09;69.10;99533.44;4925523;29;20526;-83
2022/03/29 10:49:28;;;;;;;49.33;28.23;;;;;;;9.96;70.01;99539.41;4925075;29;20043;-82
2022/03/29 10:52:16;;;;;;;52.60;27.00;;;;;;;10.19;70.39;99527.22;4924781;29;20035;-85
2022/03/29 10:54:41;;;;;;;45.17;26.27;;;;;;;9.91;71.64;99530.13;4926427;29;20049;-84
2022/03/29 10:57:28;;;;;;;53.80;30.80;;;;;;;10.19;70.57;99523.69;4924988;29;20028;-82
2022/03/29 11:00:10;;;;;;;37.47;22.45;;;;;;;10.29;69.94;99526.44;4925450;29;20027;-82
2022/03/29 11:02:36;;;;;;;45.47;24.70;;;;;;;10.60;69.20;99521.06;4924175;29;20044;-87
2022/03/29 11:05:07;;;;;;;48.10;25.52;;;;;;;10.45;68.46;99529.19;4925710;29;20122;-83
2022/03/29 11:07:38;;;;;;;51.65;24.67;;;;;;;10.46;68.64;99525.38;4925345;29;20046;-83
2022/03/29 11:10:09;;;;;;;47.72;25.45;;;;;;;10.66;67.82;99513.69;4924459;29;20541;-83
2022/03/29 11:12:38;;;;;;;46.20;24.83;;;;;;;10.38;68.66;99516.66;4925384;29;20467;-86
2022/03/29 11:15:32;;;;;;;49.45;25.00;;;;;;;10.30;68.83;99506.25;4924679;29;20066;-85
2022/03/29 11:17:57;;;;;;;43.72;26.00;;;;;;;10.39;69.17;99507.38;4925006;29;20040;-84
2022/03/29 11:20:29;;;;;;;51.30;23.73;;;;;;;10.82;68.06;99503.63;4924168;29;20031;-84
2022/03/29 11:23:14;;;;;;;61.75;24.30;;;;;;;11.03;67.90;99505.50;4923108;29;20044;-84
2022/03/29 11:25:45;;;;;;;43.60;23.85;;;;;;;11.24;65.79;99509.06;4908653;29;20703;-83
2022/03/29 11:28:16;;;;;;;50.85;24.92;;;;;;;10.92;66.22;99500.06;4923801;29;20035;-83
2022/03/29 11:30:42;;;;;;;53.03;24.10;;;;;;;10.49;68.11;99503.06;4909916;29;20047;-83
2022/03/29 11:33:09;;;;;;;43.10;25.25;;;;;;;10.69;67.41;99506.91;4940256;29;20592;-84
2022/03/29 11:35:35;;;;;;;43.40;24.70;;;;;;;10.99;67.57;99497.06;4942492;29;20519;-83
2022/03/29 11:38:13;;;;;;;50.50;26.67;;;;;;;11.07;65.97;99495.69;4939154;29;20470;-83
2022/03/29 11:40:39;;;;;;;43.67;25.08;;;;;;;10.69;66.82;99496.81;4923456;29;20027;-86
2022/03/29 11:43:10;;;;;;;51.80;24.55;;;;;;;10.81;67.99;99493.81;4925856;29;20373;-85
2022/03/29 11:45:42;;;;;;;59.45;27.73;;;;;;;10.65;67.04;99494.91;4924649;29;20048;-86